Adams Gardens, Texas
Current Conditions -  °F | °C
As of 1:52 PM on Thursday 30 Oct 2014 (Local Time) from KHRL Reporting Station
Overcast Overcast  
Wind Chill: 88°   Ceiling: 4800
Heat Index: 90°   Visibility: 10mi
Dew Point: 66°   Wind: 5mph
Humidity: 48%   Direction: 160°SSE
Pressure: 30.03"   Gusts: NA
Location:  26.2089°N, 97.6849°W
Report Text: KHRL 301852Z 16004KT 10SM BKN048 OVC055 31/19 A3003 RMK AO2 SLP168 T03110189
Loading
Personal Weather Stations






























Interactive Weather Map
Tropical Storm Tracking
New forecast layout! Learn more

10-Day Weather Forecast

Advertisements
Track Severe Weather on mobile